Davidson County Airport


Codes: KEXX/
Name: Davidson County Airport
City: Lexington
Country: United States
Elevation: 733 ft.
Wikipedia:

Photos at Davidson County Airport


   Photos courtesy of SpottingLog. You can add your own sightings and photos by signing up for a free trial today.



No photos found.

Weather at Davidson County Airport


Time (UTC)DescriptionTempratureWindCloud coverageVisibilityPressureHumidity
25-Jun-2024 15:00Clear Sky25°C4 mph, E3%10000m1016hPa67%
25-Jun-2024 18:00Clear Sky30°C2 mph, E3%10000m1015hPa48%
25-Jun-2024 21:00Clear Sky34°C2 mph, SW0%10000m1013hPa29%
26-Jun-2024 00:00Clear Sky29°C0 mph, NE0%10000m1013hPa45%
26-Jun-2024 03:00Clear Sky24°C9 mph, NE0%10000m1014hPa54%
26-Jun-2024 06:00Clear Sky22°C7 mph, S4%10000m1014hPa95%
26-Jun-2024 09:00Scattered Clouds21°C2 mph, S50%10000m1014hPa96%
26-Jun-2024 12:00Scattered Clouds24°C4 mph, SW29%10000m1014hPa81%
26-Jun-2024 15:00Clear Sky32°C7 mph, SW2%10000m1012hPa45%
26-Jun-2024 18:00Clear Sky36°C9 mph, S1%10000m1010hPa29%
26-Jun-2024 21:00Clear Sky37°C9 mph, S4%10000m1007hPa26%
27-Jun-2024 00:00Clear Sky31°C7 mph, S3%10000m1006hPa42%
27-Jun-2024 03:00Scattered Clouds29°C11 mph, S33%10000m1007hPa40%
27-Jun-2024 06:00Scattered Clouds24°C4 mph, W40%10000m1009hPa62%
27-Jun-2024 09:00Overcast Clouds22°C7 mph, E100%10000m1008hPa69%
27-Jun-2024 12:00Overcast Clouds24°C4 mph, N100%10000m1009hPa66%
27-Jun-2024 15:00Broken Clouds31°C7 mph, N72%10000m1009hPa42%
27-Jun-2024 18:00Scattered Clouds37°C2 mph, E44%10000m1008hPa31%
27-Jun-2024 21:00Scattered Clouds36°C2 mph, S41%10000m1007hPa31%
28-Jun-2024 00:00Broken Clouds29°C11 mph, NE67%10000m1009hPa53%
28-Jun-2024 03:00Scattered Clouds26°C7 mph, NE32%10000m1010hPa63%
28-Jun-2024 06:00Light Rain22°C7 mph, E25%10000m1011hPa84%
28-Jun-2024 09:00Scattered Clouds22°C4 mph, NE36%10000m1012hPa89%
28-Jun-2024 12:00Light Rain23°C7 mph, NE45%10000m1015hPa91%
28-Jun-2024 15:00Scattered Clouds30°C7 mph, E42%10000m1015hPa57%
28-Jun-2024 18:00Few Clouds36°C7 mph, SE23%10000m1013hPa38%
28-Jun-2024 21:00Light Rain34°C9 mph, S65%10000m1012hPa41%
29-Jun-2024 00:00Light Rain24°C11 mph, E82%10000m1014hPa86%
29-Jun-2024 03:00Light Rain23°C7 mph, SE100%10000m1017hPa91%
29-Jun-2024 06:00Light Rain22°C7 mph, S82%10000m1017hPa94%
29-Jun-2024 09:00Light Rain22°C2 mph, SE81%10000m1017hPa98%
29-Jun-2024 12:00Overcast Clouds24°C7 mph, S85%10000m1018hPa94%
29-Jun-2024 15:00Broken Clouds30°C9 mph, S63%10000m1019hPa60%
29-Jun-2024 18:00Broken Clouds35°C7 mph, S75%10000m1017hPa41%
29-Jun-2024 21:00Light Rain31°C7 mph, SW99%10000m1016hPa56%
30-Jun-2024 00:00Overcast Clouds27°C11 mph, NW95%10000m1017hPa76%
30-Jun-2024 03:00Light Rain24°C4 mph, S99%10000m1018hPa88%
30-Jun-2024 06:00Overcast Clouds24°C4 mph, S100%10000m1018hPa91%
30-Jun-2024 09:00Light Rain23°C2 mph, SW100%5518m1018hPa96%
30-Jun-2024 12:00Light Rain24°C4 mph, SW100%10000m1019hPa92%